Terminal Aerodrome Forecast
Issued by NWS Boston, MA

Current Version | Previous Version | Text Only | Print | Product List | Glossary On
Versions: 1 2 3 4 5 6 7 8 9 10 11 12 13 14 15 16 17 18 19 20 21 22 23
000
FTUS41 KBOX 110827 AAA
TAFPVD
TAF AMD
KPVD 110827Z 1108/1206 22005KT P6SM OVC025
     FM111400 15003KT P6SM -SHRA OVC025
     FM111600 16004KT P6SM VCSH OVC025
     FM111900 17007KT P6SM OVC040
     FM120400 20003KT 6SM BR BKN035=

USA.gov is the U.S. government's official web portal to all federal, state and local government web resources and services.